Time;durP1;ratioP1;P1;durP2;ratioP2;P2;SDS_P1;SDS_P2;PMS_P1;PMS_P2;Temp;Humidity;BMP_temperature;BMP_pressure;BME280_temperature;BME280_humidity;BME280_pressure;Samples;Min_cycle;Max_cycle;Signal;HPM_P1;HPM_P2
2023/04/27 00:02:01;;;;;;;;;8.50;8.50;;;;;6.74;64.94;102125.78;4969496;28;11664;-67
2023/04/27 00:04:28;;;;;;;;;8.75;8.00;;;;;6.72;64.73;102119.72;4953544;28;11632;-67
2023/04/27 00:06:55;;;;;;;;;10.50;6.50;;;;;6.65;64.54;102114.09;4946353;28;11569;-67
2023/04/27 00:09:21;;;;;;;;;7.00;6.00;;;;;6.65;64.90;102120.28;4943962;28;11513;-67
2023/04/27 00:11:48;;;;;;;;;5.75;5.25;;;;;6.62;65.06;102117.88;4954669;28;11488;-67
2023/04/27 00:14:14;;;;;;;;;8.75;7.50;;;;;6.61;64.92;102118.88;4963753;28;11479;-67
2023/04/27 00:16:41;;;;;;;;;9.00;8.00;;;;;6.58;64.45;102124.47;4961167;28;11481;-67
2023/04/27 00:19:08;;;;;;;;;9.50;6.25;;;;;6.54;64.88;102117.72;4979988;28;11482;-67
2023/04/27 00:21:34;;;;;;;;;7.50;7.50;;;;;6.53;65.18;102124.06;4967338;28;12351;-67
2023/04/27 00:24:01;;;;;;;;;10.25;10.25;;;;;6.51;65.01;102117.13;4961248;28;11617;-68
2023/04/27 00:26:27;;;;;;;;;9.00;8.75;;;;;6.50;65.29;102118.13;4941194;29;11508;-67
2023/04/27 00:28:54;;;;;;;;;12.00;8.00;;;;;6.48;66.02;102120.06;4945548;28;12173;-68
2023/04/27 00:31:22;;;;;;;;;8.50;8.50;;;;;6.46;65.37;102114.03;4945967;28;11498;-67
2023/04/27 00:33:49;;;;;;;;;11.50;8.25;;;;;6.43;65.37;102112.47;4977104;28;11589;-68
2023/04/27 00:36:15;;;;;;;;;10.75;7.75;;;;;6.43;66.12;102115.13;4964437;28;12683;-67
2023/04/27 00:38:42;;;;;;;;;9.25;9.25;;;;;6.40;65.66;102118.94;4952216;28;11687;-67
2023/04/27 00:41:09;;;;;;;;;6.50;6.50;;;;;6.37;65.98;102113.88;4934950;29;12252;-68
2023/04/27 00:43:43;;;;;;;;;7.50;7.50;;;;;6.35;66.03;102120.31;4937609;28;11515;-67
2023/04/27 00:46:12;;;;;;;;;7.00;7.00;;;;;6.32;65.73;102113.44;4975921;28;12301;-67
2023/04/27 00:48:39;;;;;;;;;7.75;6.25;;;;;6.31;65.96;102116.22;4937002;29;12372;-67
2023/04/27 00:51:06;;;;;;;;;7.25;6.50;;;;;6.28;66.32;102116.47;4966571;28;11610;-67
2023/04/27 00:53:33;;;;;;;;;8.50;8.50;;;;;6.24;66.07;102110.59;4963454;28;11456;-69
2023/04/27 00:56:00;;;;;;;;;12.75;8.50;;;;;6.22;66.20;102112.53;4963162;28;11480;-68
2023/04/27 00:58:27;;;;;;;;;8.50;8.00;;;;;6.22;66.61;102115.22;4941094;28;11519;-68
2023/04/27 01:00:54;;;;;;;;;8.00;7.50;;;;;6.23;66.46;102116.06;4953501;28;11630;-68
2023/04/27 01:03:21;;;;;;;;;11.00;9.00;;;;;6.19;66.20;102115.47;4934577;29;12376;-67
2023/04/27 01:05:48;;;;;;;;;9.00;8.00;;;;;6.16;66.23;102113.94;4920807;28;11635;-67
2023/04/27 01:08:14;;;;;;;;;13.50;10.00;;;;;6.14;66.82;102121.22;4959036;28;11535;-67
2023/04/27 01:10:41;;;;;;;;;5.00;5.00;;;;;6.12;66.61;102120.53;4952915;28;11579;-68
2023/04/27 01:13:09;;;;;;;;;17.00;12.00;;;;;6.10;66.57;102111.78;4962306;28;11494;-68
2023/04/27 01:15:36;;;;;;;;;7.50;7.50;;;;;6.10;66.36;102116.28;4950893;28;11515;-68
2023/04/27 01:18:08;;;;;;;;;8.00;8.00;;;;;6.06;66.60;102118.38;4955092;28;11569;-68
2023/04/27 01:20:35;;;;;;;;;10.25;9.00;;;;;6.04;66.65;102108.81;4954247;28;11577;-67
2023/04/27 01:23:01;;;;;;;;;9.00;8.00;;;;;6.04;66.70;102122.19;4962264;28;11588;-67
2023/04/27 01:25:28;;;;;;;;;11.25;9.00;;;;;6.00;66.81;102104.72;4939616;28;11502;-67
2023/04/27 01:27:54;;;;;;;;;6.00;3.00;;;;;5.99;66.53;102111.84;4968039;28;11532;-68
2023/04/27 01:30:23;;;;;;;;;12.00;10.00;;;;;5.97;66.46;102108.50;4953187;28;11476;-67
2023/04/27 01:32:50;;;;;;;;;8.00;8.00;;;;;5.94;66.48;102101.56;4947163;28;11500;-68
2023/04/27 01:35:17;;;;;;;;;9.50;8.00;;;;;5.92;67.17;102106.22;4963214;28;11454;-67
2023/04/27 01:37:44;;;;;;;;;10.50;7.75;;;;;5.91;67.29;102093.81;4966479;28;11470;-68
2023/04/27 01:40:11;;;;;;;;;11.50;9.00;;;;;5.89;67.16;102082.38;4966812;28;11517;-67
2023/04/27 01:42:38;;;;;;;;;9.00;8.00;;;;;5.88;66.81;102086.06;4950801;28;11526;-66
2023/04/27 01:45:07;;;;;;;;;10.50;8.00;;;;;5.85;67.18;102083.63;4955580;28;11506;-67
2023/04/27 01:47:34;;;;;;;;;7.00;7.00;;;;;5.83;66.84;102085.56;4971561;28;11542;-67
2023/04/27 01:50:01;;;;;;;;;12.75;8.00;;;;;5.80;67.27;102069.84;4971947;28;11584;-67
2023/04/27 01:52:27;;;;;;;;;9.50;6.50;;;;;5.81;67.77;102076.88;4972046;28;12301;-67
2023/04/27 01:54:54;;;;;;;;;10.25;6.00;;;;;5.80;67.38;102082.34;4952741;28;11520;-67
2023/04/27 01:57:21;;;;;;;;;9.00;8.25;;;;;5.80;67.33;102085.88;4961777;28;11615;-67
2023/04/27 01:59:48;;;;;;;;;6.50;6.50;;;;;5.78;67.69;102089.63;4958072;28;11585;-67
2023/04/27 02:02:15;;;;;;;;;10.50;7.75;;;;;5.78;67.58;102077.13;4949022;28;11501;-67
2023/04/27 02:04:42;;;;;;;;;8.75;6.00;;;;;5.76;67.59;102079.09;4951024;28;11645;-67
2023/04/27 02:07:08;;;;;;;;;8.00;8.00;;;;;5.75;67.59;102080.06;4935252;28;11496;-67
2023/04/27 02:09:35;;;;;;;;;11.25;9.75;;;;;5.74;67.13;102074.84;4961741;28;11493;-67
2023/04/27 02:12:02;;;;;;;;;8.00;7.75;;;;;5.71;67.33;102065.25;4947102;28;11499;-67
2023/04/27 02:14:29;;;;;;;;;11.25;9.00;;;;;5.70;67.85;102069.75;4964912;28;11620;-67
2023/04/27 02:16:55;;;;;;;;;12.25;7.75;;;;;5.68;67.87;102068.22;4969993;28;11775;-68
2023/04/27 02:19:22;;;;;;;;;7.00;7.00;;;;;5.68;67.93;102073.56;4943887;29;11492;-67
2023/04/27 02:21:48;;;;;;;;;7.00;5.00;;;;;5.66;67.89;102081.69;4934064;28;11587;-68
2023/04/27 02:24:15;;;;;;;;;6.50;6.50;;;;;5.64;67.92;102075.66;4931668;29;11509;-67
2023/04/27 02:26:43;;;;;;;;;6.50;6.50;;;;;5.63;68.05;102071.28;4957975;28;12273;-67
2023/04/27 02:29:10;;;;;;;;;6.25;6.00;;;;;5.60;68.32;102073.38;4943089;28;11508;-67
2023/04/27 02:31:37;;;;;;;;;8.50;7.25;;;;;5.59;67.97;102069.00;4949620;28;11518;-67
2023/04/27 02:34:03;;;;;;;;;7.50;7.50;;;;;5.59;67.85;102060.97;4948677;28;11515;-67
2023/04/27 02:36:30;;;;;;;;;10.25;8.00;;;;;5.61;68.27;102064.38;4950604;28;12341;-68
2023/04/27 02:38:56;;;;;;;;;5.00;5.00;;;;;5.58;68.67;102067.31;4965530;28;11496;-68
2023/04/27 02:41:26;;;;;;;;;10.75;8.00;;;;;5.56;68.51;102063.94;4956996;28;11536;-68
2023/04/27 02:43:52;;;;;;;;;6.00;6.00;;;;;5.52;68.47;102063.34;4945114;28;11613;-67
2023/04/27 02:46:19;;;;;;;;;8.25;7.25;;;;;5.51;68.09;102058.13;4950337;28;11574;-67
2023/04/27 02:48:45;;;;;;;;;9.25;8.00;;;;;5.50;68.34;102064.44;4980493;28;11616;-67
2023/04/27 02:51:12;;;;;;;;;7.75;7.75;;;;;5.49;68.20;102065.44;4986390;28;11481;-67
2023/04/27 02:53:38;;;;;;;;;7.25;7.25;;;;;5.47;67.94;102065.56;4955201;28;11522;-68
2023/04/27 02:56:05;;;;;;;;;11.25;9.00;;;;;5.45;68.60;102065.69;4944547;28;11646;-67
2023/04/27 02:58:31;;;;;;;;;8.25;6.25;;;;;5.44;68.22;102072.00;4972814;28;12782;-67
2023/04/27 03:00:58;;;;;;;;;9.50;8.00;;;;;5.44;68.47;102072.00;4947049;28;11627;-67
2023/04/27 03:03:25;;;;;;;;;8.00;8.00;;;;;5.42;68.56;102071.28;4931614;29;11514;-67
2023/04/27 03:05:51;;;;;;;;;10.50;8.00;;;;;5.44;68.30;102073.84;4966227;28;12202;-67
2023/04/27 03:08:18;;;;;;;;;7.00;6.00;;;;;5.44;68.64;102074.69;4946935;28;11525;-67
2023/04/27 03:10:44;;;;;;;;;9.50;7.75;;;;;5.43;68.55;102069.47;4947576;28;11507;-67
2023/04/27 03:13:13;;;;;;;;;8.00;5.50;;;;;5.43;68.62;102078.34;4966482;28;12557;-67
2023/04/27 03:15:42;;;;;;;;;5.75;5.75;;;;;5.41;68.17;102085.63;4956043;28;11595;-67
2023/04/27 03:18:08;;;;;;;;;7.50;5.00;;;;;5.40;68.44;102094.63;4962553;28;12155;-66
2023/04/27 03:20:35;;;;;;;;;8.00;5.75;;;;;5.40;68.79;102083.09;4947397;28;11627;-67
2023/04/27 03:23:01;;;;;;;;;7.00;7.00;;;;;5.37;68.12;102084.19;4941406;29;11560;-66
2023/04/27 03:25:28;;;;;;;;;9.00;6.50;;;;;5.35;67.98;102085.31;4946935;28;11651;-68
2023/04/27 03:27:55;;;;;;;;;5.00;5.00;;;;;5.33;68.12;102085.41;4950921;28;12312;-67
2023/04/27 03:30:21;;;;;;;;;5.25;5.00;;;;;5.30;67.87;102080.34;4959690;28;11523;-67
2023/04/27 03:32:48;;;;;;;;;6.00;5.00;;;;;5.29;68.12;102073.31;4965049;28;11490;-66
2023/04/27 03:35:14;;;;;;;;;7.00;7.00;;;;;5.28;68.06;102074.28;4934288;28;11484;-66
2023/04/27 03:37:41;;;;;;;;;10.50;9.00;;;;;5.29;68.02;102080.47;4933133;29;12341;-66
2023/04/27 03:40:08;;;;;;;;;6.75;6.75;;;;;5.29;68.05;102070.63;4949750;28;11579;-66
2023/04/27 03:42:35;;;;;;;;;9.50;7.00;;;;;5.29;68.22;102073.31;4964057;28;11603;-66
2023/04/27 03:45:01;;;;;;;;;7.75;7.75;;;;;5.28;67.58;102071.63;4958113;28;12275;-66
2023/04/27 03:47:28;;;;;;;;;7.25;6.25;;;;;5.28;68.17;102066.28;4950163;29;11552;-67
2023/04/27 03:49:55;;;;;;;;;7.00;7.00;;;;;5.26;68.10;102068.22;4961523;28;12300;-67
2023/04/27 03:52:22;;;;;;;;;8.50;6.00;;;;;5.26;67.56;102073.56;4969845;28;11600;-66
2023/04/27 03:54:49;;;;;;;;;4.50;4.00;;;;;5.27;67.79;102067.25;4958248;28;11496;-67
2023/04/27 03:57:16;;;;;;;;;4.75;4.00;;;;;5.28;68.02;102074.28;4949938;28;11629;-67
2023/04/27 03:59:43;;;;;;;;;7.00;5.00;;;;;5.28;67.84;102079.63;4961510;28;11490;-67
2023/04/27 04:02:10;;;;;;;;;8.00;7.50;;;;;5.27;67.44;102077.94;4955970;28;11533;-67
2023/04/27 04:04:37;;;;;;;;;9.75;7.50;;;;;5.26;67.76;102088.72;4950002;28;11495;-67
2023/04/27 04:07:04;;;;;;;;;7.00;6.50;;;;;5.24;67.50;102088.88;4950988;28;11562;-67
2023/04/27 04:09:31;;;;;;;;;6.75;5.50;;;;;5.23;67.73;102081.84;4942022;28;11523;-67
2023/04/27 04:11:58;;;;;;;;;8.00;7.75;;;;;5.21;67.30;102083.78;4980984;28;12223;-66
2023/04/27 04:14:26;;;;;;;;;7.75;4.00;;;;;5.19;67.34;102088.41;4981042;28;11558;-67
2023/04/27 04:16:53;;;;;;;;;6.50;6.00;;;;;5.16;67.49;102081.50;4963685;28;11505;-67
2023/04/27 04:19:20;;;;;;;;;8.50;8.50;;;;;5.13;67.73;102087.09;4966289;28;11531;-67
2023/04/27 04:21:47;;;;;;;;;5.00;5.00;;;;;5.12;67.45;102092.56;4952736;28;11553;-67
2023/04/27 04:24:15;;;;;;;;;5.00;5.00;;;;;5.11;67.42;102097.06;4957572;28;11536;-67
2023/04/27 04:26:41;;;;;;;;;7.75;6.00;;;;;5.09;67.67;102100.81;4968644;28;11684;-66
2023/04/27 04:29:08;;;;;;;;;8.00;7.00;;;;;5.05;67.43;102099.38;4965334;28;12241;-67
2023/04/27 04:31:36;;;;;;;;;9.00;6.25;;;;;5.01;67.97;102097.94;4948448;28;11558;-67
2023/04/27 04:34:03;;;;;;;;;4.50;4.00;;;;;5.00;67.81;102096.25;4944735;28;11497;-67
2023/04/27 04:36:30;;;;;;;;;6.00;6.00;;;;;4.99;67.82;102106.09;4956756;28;11630;-67
2023/04/27 04:38:57;;;;;;;;;5.00;5.00;;;;;5.00;67.80;102107.78;4960195;28;11493;-66
2023/04/27 04:41:25;;;;;;;;;7.00;5.25;;;;;5.00;68.09;102110.44;4937694;29;11581;-67
2023/04/27 04:43:51;;;;;;;;;8.50;5.25;;;;;5.02;68.04;102108.47;4949967;28;11495;-66
2023/04/27 04:46:18;;;;;;;;;5.00;5.00;;;;;5.03;68.32;102118.19;4933433;29;11494;-66
2023/04/27 04:48:45;;;;;;;;;5.50;4.00;;;;;5.05;68.08;102115.41;4938004;28;11665;-66
2023/04/27 04:51:12;;;;;;;;;7.50;6.50;;;;;5.08;68.05;102118.66;4972610;28;11590;-67
2023/04/27 04:53:38;;;;;;;;;8.50;7.50;;;;;5.08;67.77;102116.00;4969146;28;11503;-67
2023/04/27 04:56:09;;;;;;;;;6.50;6.50;;;;;5.11;67.75;102110.41;4952129;28;11471;-67
2023/04/27 04:58:36;;;;;;;;;10.75;7.75;;;;;5.18;67.83;102110.72;4960840;28;11555;-67
2023/04/27 05:01:06;;;;;;;;;5.50;4.00;;;;;5.21;67.75;102105.97;4978776;28;11482;-67
2023/04/27 05:03:33;;;;;;;;;7.50;4.75;;;;;5.29;67.80;102105.34;4985407;28;11592;-67
2023/04/27 05:06:00;;;;;;;;;4.75;4.75;;;;;5.38;67.31;102101.88;4961764;28;11501;-67
2023/04/27 05:08:26;;;;;;;;;5.50;5.00;;;;;5.53;67.46;102104.25;4960020;28;12237;-67
2023/04/27 05:10:53;;;;;;;;;7.00;6.00;;;;;5.63;67.05;102113.16;4956250;28;11521;-67
2023/04/27 05:13:20;;;;;;;;;5.00;5.00;;;;;5.77;66.16;102109.34;4934387;29;11606;-67
2023/04/27 05:15:47;;;;;;;;;4.75;4.75;;;;;5.94;66.08;102119.44;4949658;28;11503;-67
2023/04/27 05:18:13;;;;;;;;;6.75;4.25;;;;;6.15;65.68;102112.22;4946234;28;11871;-67
2023/04/27 05:20:40;;;;;;;;;5.75;5.75;;;;;6.35;64.94;102114.97;4953185;28;11474;-68
2023/04/27 05:23:06;;;;;;;;;9.50;6.75;;;;;6.48;64.55;102117.41;4966593;28;11503;-67
2023/04/27 05:25:40;;;;;;;;;6.00;5.50;;;;;6.60;64.07;102124.34;4955372;28;11487;-67
2023/04/27 05:28:08;;;;;;;;;6.25;5.00;;;;;6.73;63.66;102126.78;4949774;28;11633;-67
2023/04/27 05:30:35;;;;;;;;;4.75;4.00;;;;;6.85;62.41;102125.69;4938687;28;11514;-67
2023/04/27 05:33:02;;;;;;;;;7.00;5.00;;;;;6.91;62.30;102128.63;4936959;29;11651;-67
2023/04/27 05:35:30;;;;;;;;;2.00;2.00;;;;;6.90;62.29;102126.94;4949925;28;11533;-67
2023/04/27 05:37:56;;;;;;;;;5.00;3.50;;;;;6.84;62.33;102127.47;4955112;28;11315;-67
2023/04/27 05:40:23;;;;;;;;;4.00;4.00;;;;;6.69;61.97;102131.56;4962283;28;11469;-67
2023/04/27 05:42:49;;;;;;;;;3.00;3.00;;;;;6.60;62.57;102127.00;4967744;28;11333;-67
2023/04/27 05:45:16;;;;;;;;;4.50;4.50;;;;;6.53;62.78;102126.72;4964845;28;11166;-67
2023/04/27 05:47:42;;;;;;;;;5.75;5.75;;;;;6.49;62.92;102122.63;4962147;28;11183;-67
2023/04/27 05:50:10;;;;;;;;;7.00;5.00;;;;;6.41;62.94;102120.63;4970745;28;11529;-67
2023/04/27 05:52:37;;;;;;;;;2.25;2.25;;;;;6.42;63.16;102122.31;4952373;28;11609;-67
2023/04/27 05:55:05;;;;;;;;;5.00;5.00;;;;;6.48;63.52;102122.75;4947782;28;11165;-66
2023/04/27 05:57:32;;;;;;;;;3.00;3.00;;;;;6.54;62.58;102123.06;4940768;28;11523;-66
2023/04/27 05:59:59;;;;;;;;;4.75;2.50;;;;;6.65;62.30;102124.78;4950118;28;11486;-66
2023/04/27 06:02:25;;;;;;;;;4.00;4.00;;;;;6.81;61.86;102118.91;4955135;28;11478;-67
2023/04/27 06:04:52;;;;;;;;;4.00;2.50;;;;;7.01;61.43;102114.41;4947112;28;11634;-66
2023/04/27 06:07:19;;;;;;;;;5.00;5.00;;;;;7.15;61.05;102124.72;4955718;28;11065;-67
2023/04/27 06:09:45;;;;;;;;;3.25;3.00;;;;;7.23;60.12;102122.19;4950526;28;11241;-67
2023/04/27 06:12:11;;;;;;;;;4.00;4.00;;;;;7.30;59.79;102125.16;4952515;28;10934;-66
2023/04/27 06:14:38;;;;;;;;;7.75;6.50;;;;;7.37;59.70;102124.44;4949107;28;10979;-67
2023/04/27 06:17:04;;;;;;;;;5.00;4.75;;;;;7.52;59.40;102118.63;4960545;28;12027;-66
2023/04/27 06:19:33;;;;;;;;;4.75;4.75;;;;;7.65;58.95;102128.06;4953646;28;11079;-67
2023/04/27 06:22:00;;;;;;;;;4.00;3.50;;;;;7.82;58.78;102129.19;4952214;28;11016;-66
2023/04/27 06:24:27;;;;;;;;;3.00;3.00;;;;;8.01;58.22;102119.38;4951885;28;11115;-67
2023/04/27 06:26:54;;;;;;;;;4.25;4.25;;;;;8.09;58.01;102116.81;4938505;28;11597;-66
2023/04/27 06:29:20;;;;;;;;;7.50;7.50;;;;;8.18;56.81;102122.16;4937792;28;11073;-67
2023/04/27 06:31:47;;;;;;;;;3.00;3.00;;;;;8.30;57.16;102124.63;4936487;28;11058;-67
2023/04/27 06:34:13;;;;;;;;;5.00;1.75;;;;;8.29;56.84;102131.00;4955553;28;11600;-67
2023/04/27 06:36:40;;;;;;;;;4.50;3.75;;;;;8.16;56.44;102129.47;4942941;28;10889;-67
2023/04/27 06:39:06;;;;;;;;;2.00;1.00;;;;;8.09;56.93;102127.53;4943799;28;10858;-67
2023/04/27 06:41:32;;;;;;;;;6.00;4.75;;;;;8.09;57.27;102131.06;4937536;29;11431;-67
2023/04/27 06:43:59;;;;;;;;;3.00;3.00;;;;;8.09;56.90;102128.38;4939222;28;10750;-68
2023/04/27 06:46:26;;;;;;;;;4.50;4.25;;;;;8.09;57.29;102127.53;4938180;28;10958;-68
2023/04/27 06:48:52;;;;;;;;;5.00;4.00;;;;;8.04;57.54;102124.44;4931529;29;11078;-68
2023/04/27 06:51:19;;;;;;;;;4.50;4.50;;;;;8.06;57.48;102125.13;4934184;29;11091;-68
2023/04/27 06:53:45;;;;;;;;;3.75;3.00;;;;;8.08;56.81;102117.81;4940900;28;11526;-67
2023/04/27 06:56:12;;;;;;;;;4.25;3.00;;;;;8.20;57.49;102113.09;4935173;28;11029;-67
2023/04/27 06:58:38;;;;;;;;;6.00;6.00;;;;;8.27;56.99;102108.84;4941804;28;11691;-67
2023/04/27 07:01:05;;;;;;;;;4.50;4.50;;;;;8.28;56.58;102122.09;4948940;28;11222;-67
2023/04/27 07:03:35;;;;;;;;;3.75;2.00;;;;;8.36;56.82;102121.38;4986259;28;11545;-67
2023/04/27 07:06:01;;;;;;;;;4.25;4.00;;;;;8.40;56.53;102120.94;4955339;28;11728;-68
2023/04/27 07:08:28;;;;;;;;;8.00;6.00;;;;;8.42;55.86;102131.53;4942057;28;10766;-69
2023/04/27 07:10:55;;;;;;;;;4.50;2.50;;;;;8.38;55.64;102128.28;4943219;28;10952;-68
2023/04/27 07:13:21;;;;;;;;;3.50;2.00;;;;;8.33;55.39;102137.75;4955291;28;11067;-68
2023/04/27 07:15:56;;;;;;;;;6.25;4.00;;;;;8.30;55.58;102133.50;4956681;28;10901;-68
2023/04/27 07:18:23;;;;;;;;;3.50;3.00;;;;;8.31;55.14;102126.34;4942448;28;10786;-67
2023/04/27 07:20:50;;;;;;;;;3.50;2.00;;;;;8.39;55.58;102129.16;4937261;29;10776;-67
2023/04/27 07:23:16;;;;;;;;;4.00;2.50;;;;;8.53;55.27;102131.34;4946991;28;10816;-66
2023/04/27 07:25:44;;;;;;;;;4.50;3.50;;;;;8.57;54.02;102131.88;4953984;28;10744;-67
2023/04/27 07:28:11;;;;;;;;;4.25;2.00;;;;;8.58;53.46;102126.34;4949095;28;10856;-67
2023/04/27 07:30:38;;;;;;;;;2.00;2.00;;;;;8.60;52.92;102135.13;4978320;28;10781;-67
2023/04/27 07:33:04;;;;;;;;;5.00;5.00;;;;;8.65;52.67;102137.34;4958832;28;10685;-65
2023/04/27 07:35:31;;;;;;;;;6.00;3.75;;;;;8.76;51.94;102133.63;4956177;28;10751;-66
2023/04/27 07:38:01;;;;;;;;;5.00;4.00;;;;;8.91;52.38;102141.00;4968353;28;10825;-67
2023/04/27 07:40:28;;;;;;;;;2.00;2.00;;;;;9.03;51.54;102135.41;4940746;28;11485;-67
2023/04/27 07:42:57;;;;;;;;;1.00;1.00;;;;;9.05;51.51;102139.63;4961036;28;11549;-68
2023/04/27 07:45:30;;;;;;;;;1.75;1.75;;;;;9.04;51.57;102137.13;4958904;28;10554;-67
2023/04/27 07:47:59;;;;;;;;;4.00;2.00;;;;;9.08;51.38;102138.50;4954848;28;10699;-67
2023/04/27 07:50:27;;;;;;;;;1.00;1.00;;;;;9.21;51.72;102128.22;4961992;28;10672;-67
2023/04/27 07:52:53;;;;;;;;;2.00;2.00;;;;;9.33;51.47;102135.03;4973988;28;10714;-68
2023/04/27 07:55:22;;;;;;;;;1.00;1.00;;;;;9.41;51.29;102135.09;4943280;28;10708;-67
2023/04/27 07:57:49;;;;;;;;;2.75;2.75;;;;;9.56;53.93;102137.22;4952866;28;10660;-67
2023/04/27 08:00:16;;;;;;;;;5.00;2.25;;;;;9.62;52.05;102128.56;4953895;28;10646;-67
2023/04/27 08:02:43;;;;;;;;;1.75;1.75;;;;;9.62;51.40;102117.78;4945623;28;10569;-68
2023/04/27 08:05:10;;;;;;;;;3.50;2.50;;;;;9.68;50.75;102122.53;4944406;28;10714;-68
2023/04/27 08:07:37;;;;;;;;;2.00;2.00;;;;;9.74;50.91;102127.28;4953387;28;10582;-67
2023/04/27 08:10:10;;;;;;;;;4.00;2.00;;;;;9.85;50.22;102136.97;4967767;28;10482;-67
2023/04/27 08:12:36;;;;;;;;;2.75;2.75;;;;;9.94;50.42;102136.00;4960925;28;10693;-67
2023/04/27 08:15:04;;;;;;;;;3.00;3.00;;;;;10.00;50.35;102131.81;4941364;28;10464;-68
2023/04/27 08:17:31;;;;;;;;;3.00;3.00;;;;;10.03;49.88;102137.72;4958860;28;10622;-67
2023/04/27 08:19:57;;;;;;;;;5.50;4.25;;;;;10.05;49.31;102138.44;4959734;28;10631;-67
2023/04/27 08:22:24;;;;;;;;;1.00;1.00;;;;;10.07;49.42;102139.09;4955747;28;10607;-68
2023/04/27 08:24:50;;;;;;;;;1.50;1.50;;;;;10.14;49.48;102136.63;4956384;28;10415;-68
2023/04/27 08:27:17;;;;;;;;;1.75;1.75;;;;;10.19;49.67;102134.28;4958810;28;10459;-67
2023/04/27 08:29:47;;;;;;;;;2.00;2.00;;;;;10.26;48.98;102134.53;4963511;28;10489;-67
2023/04/27 08:32:15;;;;;;;;;2.25;2.25;;;;;10.31;49.05;102130.34;4959961;28;10301;-67
2023/04/27 08:34:43;;;;;;;;;1.50;1.50;;;;;10.38;49.00;102133.25;4967463;28;10356;-67
2023/04/27 08:37:10;;;;;;;;;4.00;4.00;;;;;10.42;48.05;102128.41;4958941;28;10256;-67
2023/04/27 08:39:36;;;;;;;;;3.50;3.50;;;;;10.38;48.93;102126.03;4957131;28;10375;-68
2023/04/27 08:42:13;;;;;;;;;3.50;1.75;;;;;10.39;49.10;102114.25;4955827;28;10514;-68
2023/04/27 08:44:40;;;;;;;;;3.00;2.00;;;;;10.44;48.58;102131.75;4956669;28;10390;-67
2023/04/27 08:47:07;;;;;;;;;1.00;1.00;;;;;10.48;47.29;102131.25;4947288;28;10282;-67
2023/04/27 08:49:37;;;;;;;;;3.00;3.00;;;;;10.52;47.80;102131.78;4968393;28;11117;-66
2023/04/27 08:52:10;;;;;;;;;3.00;3.00;;;;;10.54;47.50;102129.78;4947739;28;10449;-66
2023/04/27 08:54:36;;;;;;;;;2.00;2.00;;;;;10.66;47.71;102133.88;4982718;28;10410;-67
2023/04/27 08:57:10;;;;;;;;;1.00;1.00;;;;;10.74;47.26;102139.28;4956293;28;10440;-68
2023/04/27 08:59:40;;;;;;;;;4.75;3.75;;;;;10.88;47.11;102135.09;4950621;28;10416;-67
2023/04/27 09:02:18;;;;;;;;;4.00;2.00;;;;;11.01;46.66;102129.25;4949619;28;10149;-67
2023/04/27 09:04:45;;;;;;;;;2.00;2.00;;;;;11.04;46.17;102126.22;4953051;28;10201;-67
2023/04/27 09:07:17;;;;;;;;;4.00;4.00;;;;;11.02;46.27;102126.41;4961801;28;10838;-66
2023/04/27 09:09:44;;;;;;;;;5.25;5.25;;;;;11.01;46.46;102130.06;4967552;28;10168;-66
2023/04/27 09:12:20;;;;;;;;;2.00;2.00;;;;;11.04;45.89;102118.97;4952312;28;10209;-66
2023/04/27 09:14:56;;;;;;;;;4.50;4.00;;;;;11.11;45.88;102111.91;4957560;28;10274;-67
2023/04/27 09:17:27;;;;;;;;;3.50;3.00;;;;;11.12;45.64;102112.75;4965135;28;10187;-67
2023/04/27 09:20:12;;;;;;;;;2.50;2.50;;;;;11.22;46.02;102118.84;4951713;28;10026;-66
2023/04/27 09:22:46;;;;;;;;;3.50;3.50;;;;;11.27;45.52;102116.47;4962725;28;10101;-67
2023/04/27 09:25:23;;;;;;;;;3.00;3.00;;;;;11.28;45.47;102118.16;4958971;28;10228;-67
2023/04/27 09:27:50;;;;;;;;;2.00;2.00;;;;;11.36;45.98;102111.94;4963197;28;10178;-67
2023/04/27 09:30:17;;;;;;;;;3.00;3.00;;;;;11.44;45.24;102116.50;4947718;28;10047;-67
2023/04/27 09:32:52;;;;;;;;;2.50;2.00;;;;;11.52;44.90;102114.63;4961921;28;10250;-67
2023/04/27 09:35:26;;;;;;;;;5.00;3.00;;;;;11.58;44.94;102113.94;4962764;28;10092;-68
2023/04/27 09:37:54;;;;;;;;;2.25;2.25;;;;;11.64;44.71;102112.44;4957115;28;10233;-68
2023/04/27 09:40:26;;;;;;;;;4.50;3.00;;;;;11.71;44.35;102102.66;4959830;28;10083;-67
2023/04/27 09:42:55;;;;;;;;;4.00;2.00;;;;;11.80;44.13;102098.09;4947239;29;10785;-68
2023/04/27 09:45:25;;;;;;;;;4.00;2.75;;;;;11.75;43.65;102093.19;4960292;28;10011;-67
2023/04/27 09:47:51;;;;;;;;;7.50;1.50;;;;;11.72;44.49;102100.78;4959089;28;10195;-68
2023/04/27 09:50:18;;;;;;;;;2.50;2.50;;;;;11.73;44.80;102094.38;4959032;28;10010;-68
2023/04/27 09:52:45;;;;;;;;;5.00;5.00;;;;;11.78;44.53;102092.84;4961061;28;9984;-68
2023/04/27 09:55:19;;;;;;;;;2.50;2.50;;;;;11.82;44.46;102098.72;4952198;28;10025;-68
2023/04/27 09:58:13;;;;;;;;;7.00;5.00;;;;;11.86;44.26;102109.03;4958830;28;10080;-68
2023/04/27 10:00:59;;;;;;;;;5.75;4.00;;;;;11.82;43.96;102104.97;4940063;28;10766;-68
2023/04/27 10:03:50;;;;;;;;;2.00;2.00;;;;;11.82;43.83;102102.28;4956273;28;10191;-68
2023/04/27 10:06:47;;;;;;;;;2.00;2.00;;;;;11.89;43.53;102099.78;4960951;28;11130;-68
2023/04/27 10:09:16;;;;;;;;;4.75;4.25;;;;;11.98;43.51;102097.88;4973307;28;10106;-68
2023/04/27 10:11:43;;;;;;;;;4.50;3.00;;;;;12.00;44.61;102087.78;4974721;28;10045;-68
2023/04/27 10:14:17;;;;;;;;;3.00;3.00;;;;;12.06;43.93;102092.47;4942861;28;10014;-68
2023/04/27 10:16:54;;;;;;;;;2.00;2.00;;;;;12.09;43.60;102092.97;4952260;28;9865;-67
2023/04/27 10:19:22;;;;;;;;;5.00;3.00;;;;;12.10;42.96;102088.41;4958643;28;9922;-67
2023/04/27 10:21:52;;;;;;;;;3.75;3.25;;;;;12.10;43.09;102096.50;4977354;28;9857;-67
2023/04/27 10:24:18;;;;;;;;;6.00;6.00;;;;;12.18;43.36;102092.94;4953203;28;10085;-67
2023/04/27 10:26:46;;;;;;;;;2.00;2.00;;;;;12.26;42.38;102091.03;4964033;28;10183;-67
2023/04/27 10:29:15;;;;;;;;;4.50;4.50;;;;;12.29;42.21;102092.56;4963453;28;9776;-66
2023/04/27 10:31:47;;;;;;;;;3.00;3.00;;;;;12.34;42.26;102092.88;4958936;28;10053;-67
2023/04/27 10:34:17;;;;;;;;;5.00;5.00;;;;;12.34;42.15;102091.00;4951759;28;9849;-67
2023/04/27 10:36:48;;;;;;;;;5.00;5.00;;;;;12.35;42.30;102090.00;4957862;28;9864;-66
2023/04/27 10:39:21;;;;;;;;;6.25;4.00;;;;;12.37;42.78;102096.06;4958202;28;10743;-67
2023/04/27 10:41:58;;;;;;;;;6.75;4.75;;;;;12.41;42.51;102090.34;4940040;28;10192;-66
2023/04/27 10:44:27;;;;;;;;;4.75;3.00;;;;;12.45;42.29;102089.78;4950097;28;9891;-69
2023/04/27 10:46:56;;;;;;;;;6.00;4.50;;;;;12.60;42.30;102090.75;4954896;28;9780;-66
2023/04/27 10:49:22;;;;;;;;;7.25;7.00;;;;;12.66;40.65;102094.59;4943230;28;10193;-67
2023/04/27 10:51:50;;;;;;;;;5.00;5.00;;;;;12.77;40.35;102091.47;4951979;28;10016;-68
2023/04/27 10:54:17;;;;;;;;;2.00;2.00;;;;;12.86;39.75;102085.00;4965279;28;10163;-67
2023/04/27 10:56:44;;;;;;;;;6.00;5.00;;;;;12.96;39.71;102076.66;4946604;28;10000;-67
2023/04/27 10:59:11;;;;;;;;;5.50;5.50;;;;;12.99;39.89;102078.16;5014278;23;9999;-67
2023/04/27 11:01:39;;;;;;;;;5.00;5.00;;;;;13.07;39.58;102070.81;5010174;28;10504;-67
2023/04/27 11:04:05;;;;;;;;;5.00;5.00;;;;;13.22;39.93;102070.88;4997685;28;9795;-67
2023/04/27 11:06:41;;;;;;;;;5.75;5.75;;;;;13.44;39.65;102079.19;4996687;28;9861;-66
2023/04/27 11:09:09;;;;;;;;;2.50;2.50;;;;;13.56;39.51;102062.31;4993893;28;9722;-67
2023/04/27 11:11:36;;;;;;;;;9.00;9.00;;;;;13.46;37.53;102056.34;4986931;28;9716;-67
2023/04/27 11:14:02;;;;;;;;;7.25;6.00;;;;;13.29;37.89;102052.94;4988364;28;9919;-67
2023/04/27 11:16:32;;;;;;;;;6.75;4.75;;;;;13.18;39.36;102053.34;4996689;28;9791;-67
2023/04/27 11:19:04;;;;;;;;;6.75;4.75;;;;;13.07;38.91;102048.38;4986945;28;12369;-67
2023/04/27 11:21:31;;;;;;;;;7.25;7.25;;;;;13.08;38.79;102048.19;4995605;28;9684;-67
2023/04/27 11:24:07;;;;;;;;;5.75;5.00;;;;;13.23;38.79;102042.00;4999621;28;9905;-67
2023/04/27 11:26:34;;;;;;;;;5.50;4.00;;;;;13.31;38.81;102048.19;4984998;28;9690;-69
2023/04/27 11:29:08;;;;;;;;;9.00;6.75;;;;;13.39;39.13;102049.16;5006222;28;9752;-68
2023/04/27 11:31:39;;;;;;;;;3.00;3.00;;;;;13.45;39.38;102048.41;4988768;28;9839;-67
2023/04/27 11:34:07;;;;;;;;;7.25;5.75;;;;;13.60;39.06;102043.84;4995331;28;10063;-67
2023/04/27 11:36:33;;;;;;;;;9.75;8.00;;;;;13.55;37.93;102043.56;4999107;28;9782;-67